Time;durP1;ratioP1;P1;durP2;ratioP2;P2;SDS_P1;SDS_P2;PMS_P1;PMS_P2;Temp;Humidity;BMP_temperature;BMP_pressure;BME280_temperature;BME280_humidity;BME280_pressure;Samples;Min_cycle;Max_cycle;Signal;HPM_P1;HPM_P2
2022/09/25 00:00:53;;;;;;;4.72;1.10;;;10.60;99.90;;;;;;5134343;27;20473;-57
2022/09/25 00:03:20;;;;;;;7.88;1.38;;;10.50;99.90;;;;;;5133882;27;20092;-56
2022/09/25 00:05:46;;;;;;;4.28;0.70;;;10.60;99.90;;;;;;5133778;27;20035;-55
2022/09/25 00:08:13;;;;;;;3.75;0.70;;;10.50;99.90;;;;;;5118997;27;20031;-56
2022/09/25 00:10:44;;;;;;;4.63;0.60;;;10.40;99.90;;;;;;5142327;27;20062;-56
2022/09/25 00:13:10;;;;;;;2.78;1.15;;;10.50;99.90;;;;;;5118335;27;20048;-56
2022/09/25 00:15:37;;;;;;;3.92;0.85;;;10.40;99.90;;;;;;5144614;27;20467;-56
2022/09/25 00:18:02;;;;;;;4.20;0.82;;;10.40;99.90;;;;;;5136789;27;20392;-56
2022/09/25 00:20:28;;;;;;;5.65;0.80;;;10.30;99.90;;;;;;5133313;27;20034;-56
2022/09/25 00:22:54;;;;;;;5.07;1.10;;;10.30;99.90;;;;;;5132066;27;20035;-58
2022/09/25 00:25:20;;;;;;;4.35;0.52;;;10.20;99.90;;;;;;5132715;27;20396;-57
2022/09/25 00:27:47;;;;;;;4.63;1.00;;;10.20;99.90;;;;;;5117695;27;20057;-56
2022/09/25 00:30:13;;;;;;;3.05;0.70;;;10.20;99.90;;;;;;5094543;28;20039;-58
2022/09/25 00:32:39;;;;;;;3.90;1.60;;;10.20;99.90;;;;;;5112370;28;20040;-58
2022/09/25 00:35:06;;;;;;;4.40;0.88;;;10.10;99.90;;;;;;5112343;27;20160;-56
2022/09/25 00:37:34;;;;;;;;;;;10.10;99.90;;;;;;5112193;28;20044;-56
2022/09/25 00:40:00;;;;;;;1.30;0.70;;;10.00;99.90;;;;;;5111976;28;19929;-56
2022/09/25 00:42:26;;;;;;;5.35;1.48;;;10.00;99.90;;;;;;5111973;28;20032;-55
2022/09/25 00:44:58;;;;;;;1.47;0.80;;;10.00;99.90;;;;;;5112948;27;20071;-58
2022/09/25 00:48:08;;;;;;;7.78;1.23;;;10.00;99.90;;;;;;5121588;27;20110;-57
2022/09/25 00:50:55;;;;;;;4.22;1.20;;;10.00;99.90;;;;;;5049036;28;20071;-55
2022/09/25 00:53:27;;;;;;;5.82;1.15;;;10.00;99.90;;;;;;5048612;28;20517;-56
2022/09/25 00:55:54;;;;;;;5.13;1.05;;;10.00;99.90;;;;;;5088127;28;20519;-56
2022/09/25 00:58:24;;;;;;;4.93;1.02;;;9.90;99.90;;;;;;5112032;28;20097;-58
2022/09/25 01:00:50;;;;;;;7.18;1.40;;;9.90;99.90;;;;;;5111842;28;20039;-57
2022/09/25 01:03:17;;;;;;;1.58;0.80;;;9.90;99.90;;;;;;5111885;28;20400;-58
2022/09/25 01:05:44;;;;;;;5.03;1.02;;;9.90;99.90;;;;;;5121165;27;20554;-57
2022/09/25 01:08:18;;;;;;;1.67;0.43;;;9.90;99.90;;;;;;5132132;27;20062;-57
2022/09/25 01:10:44;;;;;;;4.68;0.75;;;9.90;99.90;;;;;;5132398;27;20039;-56
2022/09/25 01:13:12;;;;;;;4.23;1.07;;;9.90;99.90;;;;;;5132222;27;20484;-56
2022/09/25 01:16:08;;;;;;;2.80;0.85;;;9.80;99.90;;;;;;5130544;27;20114;-56
2022/09/25 01:18:59;;;;;;;3.60;0.82;;;9.70;99.90;;;;;;5140245;27;20034;-55
2022/09/25 01:22:03;;;;;;;2.15;0.95;;;9.70;99.90;;;;;;5124057;27;20050;-57
2022/09/25 01:24:51;;;;;;;2.60;0.60;;;9.70;99.90;;;;;;5107204;28;20055;-55
2022/09/25 01:27:30;;;;;;;2.85;0.75;;;9.60;99.90;;;;;;5127540;27;20055;-56
2022/09/25 01:30:12;;;;;;;3.35;0.80;;;9.60;99.90;;;;;;5140890;27;20047;-58
2022/09/25 01:33:03;;;;;;;6.18;1.13;;;9.70;99.90;;;;;;5111436;28;20031;-56
2022/09/25 01:35:51;;;;;;;2.63;0.70;;;9.60;99.90;;;;;;5111620;28;20059;-55
2022/09/25 01:38:31;;;;;;;4.15;1.20;;;9.60;99.90;;;;;;5130455;27;20039;-57
2022/09/25 01:41:06;;;;;;;3.10;0.50;;;9.60;99.90;;;;;;5113228;27;20047;-57
2022/09/25 01:43:39;;;;;;;1.88;0.50;;;9.50;99.90;;;;;;5131446;27;20067;-54
2022/09/25 01:46:30;;;;;;;2.10;0.75;;;9.50;99.90;;;;;;5131722;27;20519;-56
2022/09/25 01:49:07;;;;;;;5.82;0.60;;;9.40;99.90;;;;;;5122503;27;20055;-56
2022/09/25 01:51:40;;;;;;;3.17;0.70;;;9.40;99.90;;;;;;5117260;27;20045;-57
2022/09/25 01:54:21;;;;;;;1.77;0.63;;;9.30;99.90;;;;;;5110606;28;20484;-54
2022/09/25 01:56:56;;;;;;;2.08;0.60;;;9.30;99.90;;;;;;5092979;28;20066;-53
2022/09/25 01:59:36;;;;;;;0.95;0.40;;;9.30;99.90;;;;;;5112481;28;20043;-55
2022/09/25 02:02:06;;;;;;;0.85;0.38;;;9.20;99.90;;;;;;5111378;28;20081;-56
2022/09/25 02:04:38;;;;;;;1.35;0.40;;;9.20;99.90;;;;;;5110973;28;20078;-56
2022/09/25 02:07:08;;;;;;;0.60;0.40;;;9.10;99.90;;;;;;5111244;28;20504;-57
2022/09/25 02:09:41;;;;;;;2.25;0.70;;;9.00;99.90;;;;;;5126941;28;20398;-58
2022/09/25 02:12:13;;;;;;;4.05;0.50;;;9.00;99.90;;;;;;5131672;28;20039;-55
2022/09/25 02:14:47;;;;;;;4.00;1.00;;;9.00;99.90;;;;;;5118609;28;20442;-55
2022/09/25 02:20:30;;;;;;;2.50;1.05;;;9.00;99.90;;;;;;5111150;28;20040;-55
2022/09/25 02:22:51;;;;;;;1.20;0.50;;;9.00;99.90;;;;;;5111203;28;20075;-54
2022/09/25 02:25:34;;;;;;;3.90;0.50;;;9.00;99.90;;;;;;5110797;28;20046;-57
2022/09/25 02:28:00;;;;;;;1.90;0.35;;;9.00;99.90;;;;;;5109591;28;20096;-58
2022/09/25 02:30:26;;;;;;;0.32;0.30;;;8.90;99.90;;;;;;5110271;28;20040;-55
2022/09/25 02:32:52;;;;;;;0.60;0.30;;;8.90;99.90;;;;;;5130963;27;20108;-56
2022/09/25 02:35:18;;;;;;;;;;;8.80;99.90;;;;;;5131452;27;20042;-56
2022/09/25 02:37:43;;;;;;;2.38;0.35;;;8.80;99.90;;;;;;5134149;27;20332;-55
2022/09/25 02:40:10;;;;;;;13.00;0.67;;;8.70;99.90;;;;;;5129859;27;20076;-56
2022/09/25 02:42:45;;;;;;;;;;;8.70;99.90;;;;;;5111242;28;20262;-54
2022/09/25 02:45:35;;;;;;;1.00;0.40;;;8.60;99.90;;;;;;5110334;28;19920;-55
2022/09/25 02:48:12;;;;;;;1.00;0.50;;;8.60;99.90;;;;;;5129089;28;20449;-57
2022/09/25 02:51:04;;;;;;;1.58;0.73;;;8.60;99.90;;;;;;5123817;28;20051;-56
2022/09/25 02:53:42;;;;;;;2.13;0.60;;;8.60;99.90;;;;;;5110003;28;20450;-57
2022/09/25 02:56:13;;;;;;;1.45;0.70;;;8.60;99.90;;;;;;5110236;28;20112;-56
2022/09/25 02:58:49;;;;;;;1.23;0.80;;;8.70;99.90;;;;;;5110833;28;20127;-57
2022/09/25 03:01:17;;;;;;;3.50;0.90;;;8.70;99.90;;;;;;5123546;27;20039;-57
2022/09/25 03:03:50;;;;;;;1.48;0.50;;;8.60;99.90;;;;;;5133502;27;20066;-57
2022/09/25 03:06:16;;;;;;;2.88;0.50;;;8.60;99.90;;;;;;5134603;27;20039;-58
2022/09/25 03:08:48;;;;;;;3.40;0.80;;;8.60;99.90;;;;;;5134485;27;20108;-56
2022/09/25 03:11:18;;;;;;;2.75;0.70;;;8.60;99.90;;;;;;5127484;27;20519;-58
2022/09/25 03:13:44;;;;;;;2.85;0.70;;;8.60;99.90;;;;;;5113256;28;20496;-54
2022/09/25 03:16:10;;;;;;;;;;;8.60;99.90;;;;;;5133624;27;20039;-55
2022/09/25 03:18:36;;;;;;;1.80;0.40;;;8.60;99.90;;;;;;5134299;27;20303;-57
2022/09/25 03:21:03;;;;;;;0.50;0.30;;;8.60;99.90;;;;;;5132685;27;20050;-56
2022/09/25 03:23:30;;;;;;;2.40;0.55;;;8.60;99.90;;;;;;5133579;27;20408;-56
2022/09/25 03:25:55;;;;;;;0.98;0.40;;;8.60;99.90;;;;;;5133941;27;20152;-55
2022/09/25 03:28:21;;;;;;;2.43;0.80;;;8.60;99.90;;;;;;5134020;27;20099;-56
2022/09/25 03:31:05;;;;;;;2.60;0.70;;;8.60;99.90;;;;;;5131983;27;20300;-57
2022/09/25 03:33:36;;;;;;;4.00;1.75;;;8.60;99.90;;;;;;5113150;28;20031;-57
2022/09/25 03:36:13;;;;;;;1.60;0.80;;;8.60;99.90;;;;;;5113613;28;20031;-55
2022/09/25 03:38:40;;;;;;;2.90;0.73;;;8.60;99.90;;;;;;5113264;28;20566;-57
2022/09/25 03:41:07;;;;;;;2.28;1.60;;;8.60;99.90;;;;;;5131264;27;20035;-56
2022/09/25 03:43:36;;;;;;;3.95;0.60;;;8.60;99.90;;;;;;5134642;27;20052;-54
2022/09/25 03:46:07;;;;;;;1.77;0.77;;;8.50;99.90;;;;;;5138084;27;20102;-52
2022/09/25 03:48:33;;;;;;;3.97;0.90;;;8.50;99.90;;;;;;5135891;27;20043;-57
2022/09/25 03:51:00;;;;;;;2.83;0.95;;;8.50;99.90;;;;;;5150808;27;20043;-56
2022/09/25 03:53:26;;;;;;;3.58;1.50;;;8.50;99.90;;;;;;5118883;27;20175;-54
2022/09/25 03:55:53;;;;;;;4.30;1.20;;;8.50;99.90;;;;;;5131803;27;20114;-56
2022/09/25 03:58:19;;;;;;;2.60;0.60;;;8.50;99.90;;;;;;5137526;27;20461;-56
2022/09/25 04:00:45;;;;;;;2.50;0.47;;;8.50;99.90;;;;;;5133850;27;20055;-53
2022/09/25 04:03:11;;;;;;;;;;;8.50;99.90;;;;;;5126627;27;20093;-55
2022/09/25 04:05:37;;;;;;;1.85;0.60;;;8.40;99.90;;;;;;5113109;28;19919;-54
2022/09/25 04:08:04;;;;;;;2.55;0.73;;;8.50;99.90;;;;;;5112545;28;20420;-57
2022/09/25 04:10:30;;;;;;;2.50;0.80;;;8.50;99.90;;;;;;5122361;27;20045;-55
2022/09/25 04:12:56;;;;;;;2.65;0.70;;;8.50;99.90;;;;;;5114466;27;20456;-54
2022/09/25 04:15:22;;;;;;;3.67;0.50;;;8.40;99.90;;;;;;5133375;27;20070;-56
2022/09/25 04:17:48;;;;;;;4.15;0.60;;;8.40;99.90;;;;;;5133019;27;20062;-56
2022/09/25 04:20:14;;;;;;;1.42;0.40;;;8.40;99.90;;;;;;5127958;27;20061;-55
2022/09/25 04:22:39;;;;;;;1.45;0.50;;;8.40;99.90;;;;;;5093925;28;20036;-55
2022/09/25 04:25:05;;;;;;;8.13;0.90;;;8.40;99.90;;;;;;5111774;28;20554;-53
2022/09/25 04:27:31;;;;;;;2.33;0.65;;;8.30;99.90;;;;;;5112361;28;20039;-56
2022/09/25 04:29:56;;;;;;;0.90;0.68;;;8.30;99.90;;;;;;5112671;28;20135;-56
2022/09/25 04:35:07;;;;;;;1.17;0.30;;;8.30;99.90;;;;;;5132200;27;20039;-54
2022/09/25 04:37:32;;;;;;;0.60;0.35;;;8.30;99.90;;;;;;5121048;27;20114;-56
2022/09/25 04:39:58;;;;;;;2.88;0.50;;;8.30;99.90;;;;;;5112127;28;20332;-54
2022/09/25 04:42:24;;;;;;;3.70;0.97;;;8.30;99.90;;;;;;5126652;27;20050;-54
2022/09/25 04:44:54;;;;;;;2.95;0.40;;;8.30;99.90;;;;;;5132171;27;20074;-53
2022/09/25 04:47:24;;;;;;;1.52;0.40;;;8.30;99.90;;;;;;5132280;27;20058;-54
2022/09/25 04:49:50;;;;;;;3.33;0.68;;;8.30;99.90;;;;;;5132448;27;20039;-54
2022/09/25 04:52:16;;;;;;;1.17;0.40;;;8.30;99.90;;;;;;5130570;27;20039;-56
2022/09/25 04:54:42;;;;;;;2.72;0.80;;;8.30;99.90;;;;;;5131341;27;20066;-56
2022/09/25 04:57:20;;;;;;;1.67;0.40;;;8.30;99.90;;;;;;5136847;27;20118;-55
2022/09/25 04:59:47;;;;;;;3.53;0.98;;;8.30;99.90;;;;;;5152804;27;20035;-56
2022/09/25 05:02:13;;;;;;;4.53;0.60;;;8.20;99.90;;;;;;5133579;27;20032;-54
2022/09/25 05:04:39;;;;;;;4.15;0.57;;;8.20;99.90;;;;;;5131616;27;20149;-53
2022/09/25 05:07:05;;;;;;;2.83;0.30;;;8.10;99.90;;;;;;5128912;27;20039;-55
2022/09/25 05:09:31;;;;;;;3.10;0.63;;;8.10;99.90;;;;;;5132347;27;20042;-55
2022/09/25 05:11:57;;;;;;;3.60;1.05;;;8.10;99.90;;;;;;5139740;27;20045;-57
2022/09/25 05:14:24;;;;;;;0.57;0.30;;;8.10;99.90;;;;;;5116778;27;20039;-54
2022/09/25 05:16:49;;;;;;;3.72;0.55;;;8.10;99.90;;;;;;5111115;28;20039;-56
2022/09/25 05:19:15;;;;;;;1.47;0.20;;;8.10;99.90;;;;;;5111572;28;20043;-56
2022/09/25 05:21:41;;;;;;;0.63;0.20;;;8.10;99.90;;;;;;5110761;28;20038;-57
2022/09/25 05:24:08;;;;;;;2.38;0.30;;;8.10;99.90;;;;;;5093738;28;20036;-55
2022/09/25 05:26:34;;;;;;;;;;;8.10;99.90;;;;;;5111430;28;20032;-57
2022/09/25 05:29:00;;;;;;;0.30;0.30;;;8.00;99.90;;;;;;5111041;28;19998;-56
2022/09/25 05:31:26;;;;;;;0.70;0.30;;;7.90;99.90;;;;;;5123444;27;20043;-56
2022/09/25 05:33:52;;;;;;;0.40;0.30;;;7.90;99.90;;;;;;5127881;27;20107;-58
2022/09/25 05:36:18;;;;;;;;;;;7.90;99.90;;;;;;5111928;28;20438;-54
2022/09/25 05:38:44;;;;;;;0.65;0.30;;;7.90;99.90;;;;;;5110931;28;19926;-55
2022/09/25 05:41:10;;;;;;;1.20;0.40;;;7.90;99.90;;;;;;5111095;28;20416;-52
2022/09/25 05:43:41;;;;;;;1.90;0.25;;;8.00;99.90;;;;;;5117287;27;20448;-55
2022/09/25 05:46:07;;;;;;;0.40;0.40;;;8.00;99.90;;;;;;5111974;27;20040;-56
2022/09/25 05:48:33;;;;;;;1.58;0.73;;;8.10;99.90;;;;;;5111102;28;20047;-56
2022/09/25 05:50:59;;;;;;;4.07;0.73;;;8.10;99.90;;;;;;5111077;28;20043;-54
2022/09/25 05:53:25;;;;;;;2.10;0.57;;;8.20;99.90;;;;;;5092288;28;20104;-57
2022/09/25 05:55:53;;;;;;;0.85;0.70;;;8.40;99.90;;;;;;5102982;28;20047;-57
2022/09/25 05:58:19;;;;;;;2.53;0.60;;;8.50;99.90;;;;;;5131041;28;20076;-55
2022/09/25 06:00:45;;;;;;;5.13;0.80;;;8.60;99.90;;;;;;5123646;28;20400;-54
2022/09/25 06:03:10;;;;;;;2.00;0.87;;;8.90;99.90;;;;;;5110613;28;20031;-55
2022/09/25 06:05:38;;;;;;;7.23;0.77;;;9.10;99.90;;;;;;5111850;28;20396;-55
2022/09/25 06:08:04;;;;;;;1.90;0.57;;;9.40;99.90;;;;;;5110970;28;20035;-53
2022/09/25 06:10:30;;;;;;;2.17;2.08;;;9.80;99.90;;;;;;5110991;28;20502;-53
2022/09/25 06:13:01;;;;;;;4.90;1.00;;;10.00;99.90;;;;;;5113853;27;20138;-54
2022/09/25 06:15:28;;;;;;;5.57;0.88;;;10.20;99.90;;;;;;5143582;27;20437;-52
2022/09/25 06:17:56;;;;;;;1.80;0.80;;;10.40;99.90;;;;;;5136886;27;20050;-54
2022/09/25 06:20:23;;;;;;;4.75;1.52;;;10.60;99.90;;;;;;5118046;27;20561;-53
2022/09/25 06:22:53;;;;;;;5.18;1.40;;;10.90;99.90;;;;;;5131117;28;20035;-53
2022/09/25 06:25:24;;;;;;;3.42;1.45;;;11.30;99.90;;;;;;5130871;27;20035;-57
2022/09/25 06:27:54;;;;;;;1.42;0.60;;;11.70;99.90;;;;;;5117548;27;20039;-56
2022/09/25 06:30:21;;;;;;;1.33;0.28;;;12.10;99.90;;;;;;5117554;28;20027;-54
2022/09/25 06:32:49;;;;;;;1.40;0.45;;;12.50;99.90;;;;;;5117391;27;20053;-56
2022/09/25 06:35:15;;;;;;;3.13;0.40;;;12.90;99.90;;;;;;5139045;27;20042;-54
2022/09/25 06:37:41;;;;;;;2.65;0.63;;;13.10;99.90;;;;;;5130910;27;20148;-55
2022/09/25 06:40:07;;;;;;;4.70;0.70;;;13.10;99.90;;;;;;5132921;27;20110;-52
2022/09/25 06:42:34;;;;;;;2.00;0.70;;;13.00;99.90;;;;;;5113654;28;20431;-55
2022/09/25 06:45:02;;;;;;;;;;;12.80;99.90;;;;;;5114507;28;20035;-53
2022/09/25 06:47:28;;;;;;;1.58;0.32;;;12.70;99.90;;;;;;5124143;27;19923;-55
2022/09/25 06:49:53;;;;;;;2.57;0.67;;;12.60;99.90;;;;;;5114043;28;20039;-54
2022/09/25 06:52:19;;;;;;;3.87;0.60;;;12.40;99.90;;;;;;5114186;28;20124;-56
2022/09/25 06:54:45;;;;;;;7.53;0.50;;;12.20;99.90;;;;;;5115537;27;20763;-55
2022/09/25 06:57:11;;;;;;;7.25;0.88;;;12.00;99.90;;;;;;5132411;27;20466;-54
2022/09/25 06:59:37;;;;;;;3.03;0.88;;;11.90;99.90;;;;;;5115356;27;20032;-53
2022/09/25 07:04:53;;;;;;;5.30;1.20;;;11.80;99.90;;;;;;5121267;27;20458;-56
2022/09/25 07:07:19;;;;;;;8.07;0.85;;;11.90;99.90;;;;;;5136652;27;20047;-58
2022/09/25 07:09:47;;;;;;;2.72;0.70;;;11.90;99.90;;;;;;5135982;27;20039;-53
2022/09/25 07:12:13;;;;;;;5.25;0.73;;;12.00;99.90;;;;;;5129544;27;20031;-57
2022/09/25 07:14:40;;;;;;;9.68;1.13;;;12.00;99.90;;;;;;5140024;27;20045;-54
2022/09/25 07:17:07;;;;;;;6.30;1.13;;;12.10;99.90;;;;;;5154931;27;20395;-53
2022/09/25 07:19:32;;;;;;;;;;;12.20;99.90;;;;;;5145530;27;20027;-52
2022/09/25 07:21:58;;;;;;;3.50;0.57;;;12.30;99.90;;;;;;5150152;27;19919;-54
2022/09/25 07:24:25;;;;;;;32.17;4.70;;;12.40;99.90;;;;;;5139177;27;20115;-55
2022/09/25 07:26:51;;;;;;;4.95;0.98;;;12.50;99.90;;;;;;5154726;27;20609;-54
2022/09/25 07:29:17;;;;;;;7.20;1.88;;;12.60;99.90;;;;;;5146992;27;20544;-55
2022/09/25 07:31:43;;;;;;;6.38;0.90;;;12.60;99.90;;;;;;5128581;27;20068;-57
2022/09/25 07:34:09;;;;;;;9.48;1.60;;;12.70;99.90;;;;;;5118149;27;20509;-53
2022/09/25 07:36:37;;;;;;;5.22;0.85;;;12.80;99.90;;;;;;5154566;27;20107;-54
2022/09/25 07:39:03;;;;;;;8.50;1.40;;;12.90;99.90;;;;;;5150731;27;20050;-54
2022/09/25 07:41:29;;;;;;;13.18;1.02;;;13.00;99.90;;;;;;5133855;27;20054;-54
2022/09/25 07:43:56;;;;;;;5.70;0.75;;;13.10;99.90;;;;;;5133543;27;20031;-55
2022/09/25 07:46:23;;;;;;;40.67;3.63;;;13.20;99.90;;;;;;5152994;27;20046;-54
2022/09/25 07:48:49;;;;;;;4.35;0.55;;;13.30;99.90;;;;;;5154111;27;20129;-57
2022/09/25 07:51:16;;;;;;;5.57;0.77;;;13.40;99.90;;;;;;5115610;27;20036;-57
2022/09/25 07:53:42;;;;;;;4.72;0.80;;;13.50;99.90;;;;;;5112232;28;20081;-57
2022/09/25 07:56:08;;;;;;;;;;;13.60;99.90;;;;;;5111913;27;20051;-54
2022/09/25 07:58:37;;;;;;;3.00;0.43;;;13.70;99.90;;;;;;5133418;27;19926;-55
2022/09/25 08:01:05;;;;;;;1.80;0.70;;;13.80;99.90;;;;;;5104769;27;20059;-56
2022/09/25 08:03:31;;;;;;;4.10;0.50;;;13.90;99.90;;;;;;5112277;28;20128;-55
2022/09/25 08:06:10;;;;;;;4.75;0.68;;;14.00;99.90;;;;;;5133178;27;20083;-57
2022/09/25 08:08:36;;;;;;;4.20;0.40;;;14.10;99.90;;;;;;5135446;27;20039;-55
2022/09/25 08:11:08;;;;;;;3.33;0.45;;;14.30;99.90;;;;;;5130974;27;20499;-56
2022/09/25 08:13:34;;;;;;;4.97;0.65;;;14.40;99.90;;;;;;5112179;28;20046;-56
2022/09/25 08:16:03;;;;;;;;;;;14.50;99.90;;;;;;5112855;28;20042;-59
2022/09/25 08:18:29;;;;;;;17.52;1.27;;;14.60;99.90;;;;;;5124232;27;19976;-58
2022/09/25 08:21:00;;;;;;;2.92;0.70;;;14.70;99.90;;;;;;5118558;27;20032;-58
2022/09/25 08:23:26;;;;;;;5.72;0.40;;;14.80;99.90;;;;;;5112155;28;20050;-55
2022/09/25 08:25:52;;;;;;;4.45;1.20;;;14.90;99.90;;;;;;5130865;27;20137;-56
2022/09/25 08:28:17;;;;;;;8.13;0.68;;;15.00;99.90;;;;;;5148108;27;20125;-56
2022/09/25 08:30:43;;;;;;;19.85;0.98;;;15.10;99.90;;;;;;5118326;27;20039;-58
2022/09/25 08:33:13;;;;;;;6.57;0.88;;;15.20;99.90;;;;;;5113724;27;20042;-55
2022/09/25 08:35:42;;;;;;;3.42;0.30;;;15.30;99.90;;;;;;5118668;27;20534;-57
2022/09/25 08:38:10;;;;;;;5.03;0.50;;;15.30;99.90;;;;;;5153143;27;20042;-57
2022/09/25 08:40:40;;;;;;;7.45;0.40;;;15.50;99.90;;;;;;5132919;27;20084;-58
2022/09/25 08:43:07;;;;;;;8.65;0.40;;;15.60;99.90;;;;;;5138287;27;20087;-54
2022/09/25 08:49:03;;;;;;;4.85;0.60;;;15.80;99.90;;;;;;5134914;27;20051;-59
2022/09/25 08:51:34;;;;;;;4.20;0.30;;;16.00;99.90;;;;;;5133731;27;20046;-59
2022/09/25 08:54:02;;;;;;;10.90;0.70;;;16.10;99.90;;;;;;5130923;27;20514;-60
2022/09/25 08:56:29;;;;;;;4.57;0.50;;;16.20;99.90;;;;;;5138159;27;20034;-57
2022/09/25 08:59:35;;;;;;;2.85;0.20;;;16.30;99.90;;;;;;5117396;27;20043;-57
2022/09/25 09:02:14;;;;;;;5.93;0.45;;;16.50;99.90;;;;;;5110990;27;20039;-59
2022/09/25 09:04:50;;;;;;;3.40;0.50;;;16.60;99.90;;;;;;5137739;27;20083;-59
2022/09/25 09:07:28;;;;;;;1.92;0.20;;;16.70;99.90;;;;;;5138951;27;20047;-59
2022/09/25 09:10:26;;;;;;;4.47;0.30;;;16.80;99.90;;;;;;5131856;27;20035;-57
2022/09/25 09:13:23;;;;;;;2.33;0.30;;;16.90;99.90;;;;;;5146716;27;20074;-58
2022/09/25 09:16:14;;;;;;;2.85;0.43;;;17.00;99.90;;;;;;5110821;28;20123;-61
2022/09/25 09:18:41;;;;;;;3.15;0.28;;;17.10;99.90;;;;;;5092563;28;20043;-58
2022/09/25 09:21:25;;;;;;;5.30;0.40;;;17.20;99.90;;;;;;5113175;27;20058;-58
2022/09/25 09:24:05;;;;;;;7.55;0.65;;;17.30;99.90;;;;;;5111710;27;20063;-57
2022/09/25 09:27:04;;;;;;;3.85;0.50;;;17.50;99.90;;;;;;5118158;27;20033;-56
2022/09/25 09:30:05;;;;;;;3.38;0.30;;;17.60;99.90;;;;;;5151828;27;20049;-58
2022/09/25 09:32:39;;;;;;;4.00;0.30;;;17.70;99.70;;;;;;5139424;27;20515;-58
2022/09/25 09:35:23;;;;;;;4.05;0.50;;;17.80;99.90;;;;;;5121783;27;20445;-56
2022/09/25 09:38:03;;;;;;;3.20;0.40;;;17.90;99.70;;;;;;5115778;27;20326;-57
2022/09/25 09:40:56;;;;;;;4.30;0.45;;;18.00;99.60;;;;;;5124320;27;20499;-58
2022/09/25 09:43:42;;;;;;;5.63;0.30;;;18.10;99.60;;;;;;5144803;27;20035;-60
2022/09/25 09:46:23;;;;;;;7.97;0.30;;;18.30;98.60;;;;;;5131528;27;20043;-58
2022/09/25 09:48:58;;;;;;;4.95;0.50;;;18.30;98.20;;;;;;5116937;27;20052;-58
2022/09/25 09:51:34;;;;;;;3.70;0.40;;;18.40;97.60;;;;;;5110762;28;20035;-57
2022/09/25 09:54:08;;;;;;;6.78;0.98;;;18.50;97.70;;;;;;5110294;28;20046;-59
2022/09/25 09:56:35;;;;;;;7.10;0.30;;;18.50;97.60;;;;;;5115991;28;20057;-58
2022/09/25 09:59:10;;;;;;;8.07;0.80;;;18.50;97.60;;;;;;5125582;28;20054;-57
2022/09/25 10:01:38;;;;;;;8.75;0.47;;;18.50;97.40;;;;;;5131390;28;20680;-58
2022/09/25 10:04:34;;;;;;;3.13;0.30;;;18.40;97.60;;;;;;5130916;28;20035;-60
2022/09/25 10:07:22;;;;;;;4.82;0.50;;;18.40;96.40;;;;;;5109627;28;20620;-56
2022/09/25 10:09:53;;;;;;;5.22;0.35;;;18.40;97.20;;;;;;5151318;27;20391;-61
2022/09/25 10:12:25;;;;;;;4.38;0.40;;;18.40;97.30;;;;;;5136619;27;20031;-60
2022/09/25 10:14:50;;;;;;;6.75;0.52;;;18.50;97.40;;;;;;5134607;27;20032;-61
2022/09/25 10:17:18;;;;;;;1.55;0.20;;;18.50;96.70;;;;;;5138502;27;20049;-58
2022/09/25 10:19:54;;;;;;;4.57;0.45;;;18.50;97.00;;;;;;5127658;27;20044;-59
2022/09/25 10:22:25;;;;;;;4.25;0.50;;;18.50;96.30;;;;;;5121659;27;20068;-58
2022/09/25 10:24:57;;;;;;;2.95;0.43;;;18.40;96.40;;;;;;5116713;27;20120;-59
2022/09/25 10:27:39;;;;;;;4.95;0.38;;;18.20;96.50;;;;;;5139258;27;20098;-61
2022/09/25 10:30:10;;;;;;;6.03;0.47;;;18.00;96.30;;;;;;5122464;27;20465;-57
2022/09/25 10:32:44;;;;;;;7.93;0.30;;;17.90;96.80;;;;;;5126981;27;20039;-58
2022/09/25 10:35:38;;;;;;;4.22;0.20;;;17.70;96.90;;;;;;5155413;27;20042;-58
2022/09/25 10:38:05;;;;;;;5.20;0.70;;;17.60;96.80;;;;;;5139961;27;20042;-59
2022/09/25 10:40:34;;;;;;;2.05;0.30;;;17.40;97.50;;;;;;5118160;27;20044;-59
2022/09/25 10:43:15;;;;;;;5.43;0.32;;;17.30;97.50;;;;;;5129093;27;20087;-58
2022/09/25 10:45:41;;;;;;;6.55;0.57;;;17.10;98.00;;;;;;5120912;27;20043;-60
2022/09/25 10:51:20;;;;;;;0.17;0.00;;;16.80;98.50;;;;;;5155376;27;20046;-55
2022/09/25 10:53:51;;;;;;;3.75;0.28;;;16.60;98.40;;;;;;5142366;27;20057;-58
2022/09/25 10:56:37;;;;;;;4.53;0.30;;;16.50;98.60;;;;;;5134384;27;20399;-54
2022/09/25 10:59:18;;;;;;;4.38;0.50;;;16.40;99.00;;;;;;5134776;27;20400;-56
2022/09/25 11:01:44;;;;;;;1.02;0.10;;;16.30;99.50;;;;;;5117732;27;20047;-60
2022/09/25 11:04:29;;;;;;;2.53;0.10;;;16.30;99.40;;;;;;5129604;27;20515;-58
2022/09/25 11:06:58;;;;;;;2.38;0.10;;;16.30;99.70;;;;;;5155091;27;20031;-59
2022/09/25 11:09:29;;;;;;;0.40;0.10;;;16.20;99.80;;;;;;5138134;27;20039;-60
2022/09/25 11:12:14;;;;;;;1.98;0.30;;;16.20;99.80;;;;;;5117618;27;20038;-59
2022/09/25 11:14:54;;;;;;;3.13;0.30;;;16.20;99.90;;;;;;5146679;27;20038;-60
2022/09/25 11:17:41;;;;;;;1.05;0.17;;;16.20;99.90;;;;;;5154874;27;20031;-56
2022/09/25 11:20:20;;;;;;;3.80;0.20;;;16.10;99.90;;;;;;5118569;27;20081;-60
2022/09/25 11:23:28;;;;;;;2.45;0.30;;;16.10;99.90;;;;;;5113429;27;20080;-60
2022/09/25 11:26:08;;;;;;;0.82;0.20;;;16.20;99.90;;;;;;5069652;28;20109;-61
2022/09/25 11:28:53;;;;;;;7.47;0.43;;;16.20;99.90;;;;;;5135472;27;20046;-57
2022/09/25 11:31:31;;;;;;;2.90;0.20;;;16.30;99.90;;;;;;5112932;28;20104;-55
2022/09/25 11:34:11;;;;;;;2.80;0.20;;;16.40;99.90;;;;;;5124751;27;20031;-55
2022/09/25 11:36:48;;;;;;;4.03;0.68;;;16.40;99.90;;;;;;5133720;27;20042;-58
2022/09/25 11:42:49;;;;;;;1.35;0.28;;;16.50;99.90;;;;;;5112682;28;20046;-60
2022/09/25 11:45:51;;;;;;;1.50;0.15;;;16.60;99.90;;;;;;5128948;27;20392;-57
2022/09/25 11:48:31;;;;;;;1.60;0.22;;;16.70;99.90;;;;;;5132226;27;20051;-57
2022/09/25 11:51:02;;;;;;;2.08;0.35;;;16.70;99.90;;;;;;5122685;27;20488;-56
2022/09/25 11:53:42;;;;;;;1.65;0.30;;;16.80;99.90;;;;;;5096567;27;20035;-59
2022/09/25 11:56:27;;;;;;;1.33;0.10;;;16.90;99.90;;;;;;5154837;27;20042;-58
2022/09/25 11:59:30;;;;;;;0.60;0.17;;;17.10;99.80;;;;;;5153242;27;20488;-56
2022/09/25 12:02:07;;;;;;;2.05;0.20;;;17.40;99.90;;;;;;5138937;27;20106;-59
2022/09/25 12:04:55;;;;;;;1.45;0.40;;;17.70;99.80;;;;;;5123026;27;20043;-59
2022/09/25 12:07:24;;;;;;;1.45;0.10;;;18.00;98.50;;;;;;5138326;27;20099;-58
2022/09/25 12:09:53;;;;;;;0.82;0.10;;;18.10;98.00;;;;;;5120898;27;20046;-60
2022/09/25 12:12:41;;;;;;;2.35;0.10;;;18.20;97.20;;;;;;5140470;27;20043;-57
2022/09/25 12:15:32;;;;;;;2.22;0.10;;;18.40;96.40;;;;;;5134703;27;20050;-57
2022/09/25 12:18:11;;;;;;;3.35;0.10;;;18.50;96.20;;;;;;5145458;27;20035;-57
2022/09/25 12:20:49;;;;;;;2.50;0.45;;;18.60;96.20;;;;;;5134014;27;20483;-57
2022/09/25 12:23:28;;;;;;;1.25;0.10;;;18.80;95.40;;;;;;5140000;27;20042;-56
2022/09/25 12:26:28;;;;;;;3.08;0.10;;;18.90;95.30;;;;;;5147059;27;20043;-57
2022/09/25 12:29:24;;;;;;;4.07;0.43;;;19.10;94.60;;;;;;5088167;27;20530;-59
2022/09/25 12:32:11;;;;;;;4.18;0.10;;;19.10;93.80;;;;;;5129053;27;20114;-59
2022/09/25 12:34:57;;;;;;;0.85;0.10;;;19.10;93.80;;;;;;5149698;27;20289;-58
2022/09/25 12:37:49;;;;;;;3.50;0.20;;;19.00;94.70;;;;;;5153529;27;20372;-58
2022/09/25 12:40:32;;;;;;;1.92;0.10;;;18.90;93.90;;;;;;5111808;28;20046;-56
2022/09/25 12:43:06;;;;;;;13.77;1.40;;;18.80;94.20;;;;;;5117092;27;20115;-56
2022/09/25 12:45:42;;;;;;;13.50;0.50;;;18.60;94.90;;;;;;5129558;27;20640;-59
2022/09/25 12:48:29;;;;;;;4.70;0.10;;;18.40;95.40;;;;;;5100805;27;20039;-57
2022/09/25 12:51:21;;;;;;;1.60;0.10;;;18.20;96.00;;;;;;5151126;27;20046;-59
2022/09/25 12:54:04;;;;;;;1.80;0.20;;;17.90;96.10;;;;;;5095788;27;20051;-58
2022/09/25 12:57:01;;;;;;;3.10;0.10;;;17.70;96.60;;;;;;5153100;27;20042;-56
2022/09/25 12:59:43;;;;;;;2.50;0.20;;;17.60;97.00;;;;;;5138648;27;20058;-59
2022/09/25 13:02:39;;;;;;;1.67;0.20;;;17.40;97.00;;;;;;5111988;27;20049;-57
2022/09/25 13:05:05;;;;;;;1.50;0.10;;;17.30;97.00;;;;;;5116632;27;20028;-57
2022/09/25 13:08:05;;;;;;;2.38;0.13;;;17.20;97.50;;;;;;5111530;28;20589;-57
2022/09/25 13:10:40;;;;;;;0.85;0.10;;;17.10;97.20;;;;;;5132187;27;20053;-59
2022/09/25 13:13:18;;;;;;;1.70;0.10;;;17.10;97.10;;;;;;5146038;27;20035;-55
2022/09/25 13:15:47;;;;;;;0.60;0.10;;;17.00;97.30;;;;;;5112610;27;20097;-59
2022/09/25 13:18:19;;;;;;;2.67;0.10;;;17.00;97.50;;;;;;5110923;28;20116;-58
2022/09/25 13:20:48;;;;;;;1.80;0.20;;;17.00;97.60;;;;;;5131150;27;20043;-58
2022/09/25 13:23:23;;;;;;;1.27;0.20;;;16.90;97.50;;;;;;5132650;27;20213;-57
2022/09/25 13:26:01;;;;;;;1.98;0.10;;;16.90;97.30;;;;;;5130425;27;20403;-57
2022/09/25 13:28:36;;;;;;;1.33;0.20;;;16.90;97.40;;;;;;5131495;27;20039;-58
2022/09/25 13:31:19;;;;;;;2.67;0.30;;;16.80;97.50;;;;;;5152718;27;20170;-59
2022/09/25 13:33:52;;;;;;;3.95;0.20;;;16.80;97.70;;;;;;5142893;27;20046;-56
2022/09/25 13:36:23;;;;;;;1.10;0.20;;;16.70;97.70;;;;;;5132058;27;20410;-57
2022/09/25 13:41:50;;;;;;;4.68;0.13;;;16.60;97.90;;;;;;5131610;27;20126;-56
2022/09/25 13:44:43;;;;;;;1.05;0.10;;;16.70;98.20;;;;;;5130239;27;20459;-57